logo tempoitalia

Diretta Meteo Shanghai-Hongqiao, Cinamercoledì 12 agosto ore 09:00

Mappa
Sereno 33 °C Sereno 24 Ore: T.min 29 T.max 36
Ponente Sud Km/h 25.2 Punto di rugiada: 23 °C Umidità: 55% Visibilità: 10 Km
Il sole sorge alle: 05:17 Il sole tramonta alle: 18:41
12 Agosto 2020 09:00 tempo osservato: Sereno Sereno 33 55 1010 vento: Nord S 25.2
12 Agosto 2020 08:30 tempo osservato: Sereno Sereno 32 59 1010 vento: Nord S 21.6
12 Agosto 2020 07:30 tempo osservato: Sereno Sereno 31 66 1010 vento: Nord S 21.6
12 Agosto 2020 07:00 tempo osservato: Sereno Sereno 30 66 1010 vento: Nord S 21.6
12 Agosto 2020 06:30 tempo osservato: Sereno Sereno 30 66 1010 vento: Nord S/SE 18
12 Agosto 2020 06:00 tempo osservato: Sereno Sereno 29 70 1010 vento: Nord S/SE 18
12 Agosto 2020 05:30 tempo osservato: Sereno Sereno 30 66 1009 vento: Nord S/SE 18
12 Agosto 2020 05:00 tempo osservato: Sereno Sereno 30 70 1009 vento: Nord S/SE 18
12 Agosto 2020 04:00 tempo osservato: Sereno Sereno 30 74 1009 vento: Nord S/SE 18
12 Agosto 2020 03:30 tempo osservato: Sereno Sereno 30 74 1009 vento: Nord S/SE 18
12 Agosto 2020 03:00 tempo osservato: Sereno Sereno 30 79 1008 vento: Nord S 14.4
12 Agosto 2020 02:30 tempo osservato: Sereno Sereno 30 79 1008 vento: Nord S 14.4
12 Agosto 2020 02:00 tempo osservato: Sereno Sereno 30 79 1008 vento: Nord S 14.4
12 Agosto 2020 01:30 tempo osservato: Sereno Sereno 30 79 1008 vento: Nord S 14.4
12 Agosto 2020 00:30 tempo osservato: Sereno Sereno 30 79 1008 vento: Nord S 14.4
12 Agosto 2020 00:00 tempo osservato: Sereno Sereno 30 79 1008 vento: Nord S 18
11 Agosto 2020 23:30 tempo osservato: Sereno Sereno 30 79 1009 vento: Nord S 10.8
11 Agosto 2020 23:00 tempo osservato: Sereno Sereno 31 74 1009 vento: Nord S/SE 14.4
11 Agosto 2020 22:30 tempo osservato: Sereno Sereno 31 74 1009 vento: Nord S 14.4
11 Agosto 2020 22:00 tempo osservato: Sereno Sereno 31 74 1009 vento: Nord S/SE 14.4
11 Agosto 2020 21:30 tempo osservato: Sereno Sereno 30 79 1009 vento: Nord S/SE 10.8
11 Agosto 2020 21:00 tempo osservato: Sereno Sereno 30 79 1009 vento: Nord S/SE 14.4
11 Agosto 2020 20:30 tempo osservato: Sereno Sereno 30 79 1008 vento: Nord S/SE 14.4
11 Agosto 2020 20:00 tempo osservato: Sereno Sereno 30 79 1008 vento: Nord S/SE 18
11 Agosto 2020 19:30 tempo osservato: Sereno Sereno 30 79 1007 vento: Nord S/SE 18
11 Agosto 2020 19:00 tempo osservato: Sereno Sereno 31 74 1007 vento: Nord S/SE 18
11 Agosto 2020 18:30 tempo osservato: Sereno Sereno 31 74 1007 vento: Nord SE 18
11 Agosto 2020 18:00 tempo osservato: Sereno Sereno 32 70 1007 vento: Nord S/SE 18
11 Agosto 2020 17:30 tempo osservato: Sereno Sereno 32 70 1007 vento: Nord S/SE 18
11 Agosto 2020 17:00 tempo osservato: Sereno Sereno 33 66 1006 vento: Nord S/SE 21.6
11 Agosto 2020 16:30 tempo osservato: Sereno Sereno 33 66 1006 vento: Nord SE 21.6
11 Agosto 2020 16:00 tempo osservato: Sereno Sereno 34 63 1006 vento: Nord S/SE 21.6
11 Agosto 2020 15:30 tempo osservato: Sereno Sereno 35 53 1006 vento: Nord S 21.6
11 Agosto 2020 15:00 tempo osservato: Sereno Sereno 36 56 1006 vento: Nord S 14.4
11 Agosto 2020 14:30 tempo osservato: Sereno Sereno 34 63 1006 vento: Nord S 14.4
11 Agosto 2020 14:00 tempo osservato: Sereno Sereno 34 59 1006 vento: Nord S 18
11 Agosto 2020 13:30 tempo osservato: Sereno Sereno 34 63 1007 vento: Nord S 14.4
11 Agosto 2020 13:00 tempo osservato: Sereno Sereno 34 63 1007 vento: Nord S/SO 14.4
11 Agosto 2020 12:30 tempo osservato: Sereno Sereno 34 59 1007 vento: Nord S 14.4
11 Agosto 2020 12:00 tempo osservato: Sereno Sereno 33 62 1007 vento: Nord S 14.4
11 Agosto 2020 11:30 tempo osservato: Sereno Sereno 33 62 1007 vento: Nord S 18
11 Agosto 2020 11:00 tempo osservato: Sereno Sereno 32 66 1007 vento: Nord S/SO 14.4
11 Agosto 2020 10:30 tempo osservato: Sereno Sereno 32 66 1007 vento: Nord S 14.4
11 Agosto 2020 10:00 tempo osservato: Sereno Sereno 32 66 1007 vento: Nord S/SO 14.4